This is the latest recevied weather packets stored in our database for station/object KE2A-13. If no packets are shown the sender has not sent any weather packets the latest 10 day(s).
| Time | Temp. | Humidity | Pressure | Rain* | Wind** | Luminosity | Snow |
|---|---|---|---|---|---|---|---|
| 1777476600 | 17.22° C | 52% | 1014.6 hPa | - | - | - | - |
| 1777475700 | 17.78° C | 51% | 1014.7 hPa | - | - | - | - |
| 1777474800 | 17.22° C | 51% | 1014.8 hPa | - | - | - | - |
| 1777473900 | 17.22° C | 50% | 1014.7 hPa | - | - | - | - |
| 1777473000 | 16.67° C | 50% | 1014.7 hPa | - | - | - | - |
| 1777472100 | 16.11° C | 52% | 1014.8 hPa | - | - | - | - |
| 1777471200 | 15.56° C | 52% | 1014.9 hPa | - | - | - | - |
| 1777470300 | 15° C | 52% | 1015 hPa | - | - | - | - |
| 1777469400 | 15° C | 52% | 1015 hPa | - | - | - | - |
| 1777468500 | 15° C | 54% | 1015.2 hPa | - | - | - | - |
| 1777467600 | 13.89° C | 57% | 1015.7 hPa | - | - | - | - |
| 1777466700 | 13.89° C | 59% | 1015.9 hPa | - | - | - | - |
| 1777465800 | 13.33° C | 63% | 1016.1 hPa | - | - | - | - |
| 1777464900 | 12.78° C | 64% | 1016.1 hPa | - | - | - | - |
| 1777464000 | 13.33° C | 63% | 1016 hPa | - | - | - | - |
| 1777463100 | 12.22° C | 67% | 1016.1 hPa | - | - | - | - |
| 1777462200 | 11.11° C | 70% | 1016.3 hPa | - | - | - | - |
| 1777461300 | 10.56° C | 75% | 1016.5 hPa | - | - | - | - |
| 1777460400 | 10° C | 78% | 1016.7 hPa | - | - | - | - |
| 1777459500 | 10° C | 79% | 1016.6 hPa | - | - | - | - |
| 1777458600 | 9.44° C | 79% | 1016.5 hPa | - | - | - | - |
| 1777457700 | 9.44° C | 81% | 1016.5 hPa | - | - | - | - |
| 1777456800 | 9.44° C | 80% | 1016.6 hPa | - | - | - | - |
| 1777455900 | 9.44° C | 80% | 1016.8 hPa | - | - | - | - |
| 1777455000 | 9.44° C | 80% | 1016.9 hPa | - | - | - | - |
* Rain since midnight (hover to see other rain measurements)
** Current wind speed in m/s (hover to see current wind gust speed)